EZY464 EGTE-EGKK
Flight info
| Callsign | EZY464 |
|---|---|
| Flight time | 0h 35m |
| Altitude | 15000 |
| Route | GIBSO DCT BEGTO N16 GWC |
| Aircraft | A319/M-SDE3FGHIRWY/LB1 |
Departure
| Time | 2026-05-07 13:07 |
|---|---|
| Airport | Exeter International Airport (EGTE) |
Arrival
| Time | 2026-05-07 13:42 |
|---|---|
| Airport | London Gatwick Airport (EGKK) |
| Time | Latitude | Longitude | Altitude | Speed | Heading |
|---|---|---|---|---|---|
| 2026-05-07 12:47 | 50.73040 | -3.41988 | 99 ft | 0 kts | 130° |
| 2026-05-07 12:57 | 50.73050 | -3.42007 | 101 ft | 4 kts | 132° |
| 2026-05-07 12:57 | 50.73068 | -3.42038 | 98 ft | 3 kts | 131° |
| 2026-05-07 12:57 | 50.73082 | -3.42067 | 99 ft | 4 kts | 108° |
| 2026-05-07 12:57 | 50.73082 | -3.42105 | 98 ft | 4 kts | 64° |
| 2026-05-07 12:58 | 50.73080 | -3.42114 | 98 ft | 0 kts | 59° |
| 2026-05-07 13:00 | 50.73081 | -3.42110 | 99 ft | 1 kts | 60° |
| 2026-05-07 13:00 | 50.73093 | -3.42075 | 99 ft | 5 kts | 62° |
| 2026-05-07 13:00 | 50.73110 | -3.42019 | 99 ft | 7 kts | 66° |
| 2026-05-07 13:01 | 50.73132 | -3.41940 | 99 ft | 8 kts | 63° |
| 2026-05-07 13:01 | 50.73162 | -3.41859 | 100 ft | 9 kts | 59° |
| 2026-05-07 13:01 | 50.73196 | -3.41771 | 99 ft | 10 kts | 58° |
| 2026-05-07 13:01 | 50.73219 | -3.41667 | 99 ft | 11 kts | 91° |
| 2026-05-07 13:02 | 50.73209 | -3.41547 | 99 ft | 11 kts | 94° |
| 2026-05-07 13:02 | 50.73208 | -3.41417 | 99 ft | 12 kts | 90° |
| 2026-05-07 13:02 | 50.73209 | -3.41277 | 99 ft | 13 kts | 85° |
| 2026-05-07 13:02 | 50.73230 | -3.41134 | 100 ft | 14 kts | 68° |
| 2026-05-07 13:03 | 50.73305 | -3.41050 | 99 ft | 14 kts | 9° |
| 2026-05-07 13:03 | 50.73406 | -3.41054 | 99 ft | 15 kts | 353° |
| 2026-05-07 13:03 | 50.73508 | -3.41086 | 99 ft | 14 kts | 340° |
| 2026-05-07 13:03 | 50.73564 | -3.41084 | 101 ft | 8 kts | 45° |
| 2026-05-07 13:04 | 50.73590 | -3.40975 | 100 ft | 12 kts | 76° |
| 2026-05-07 13:04 | 50.73608 | -3.40841 | 101 ft | 13 kts | 79° |
| 2026-05-07 13:04 | 50.73630 | -3.40699 | 99 ft | 14 kts | 75° |
| 2026-05-07 13:04 | 50.73655 | -3.40549 | 101 ft | 14 kts | 75° |
| 2026-05-07 13:05 | 50.73659 | -3.40393 | 101 ft | 15 kts | 110° |
| 2026-05-07 13:05 | 50.73609 | -3.40337 | 100 ft | 8 kts | 198° |
| 2026-05-07 13:05 | 50.73584 | -3.40398 | 100 ft | 0 kts | 252° |
| 2026-05-07 13:06 | 50.73583 | -3.40400 | 100 ft | 4 kts | 252° |
| 2026-05-07 13:07 | 50.73499 | -3.40915 | 101 ft | 93 kts | 256° |
| 2026-05-07 13:07 | 50.73279 | -3.42317 | 304 ft | 148 kts | 253° |
| 2026-05-07 13:07 | 50.73040 | -3.43937 | 1091 ft | 151 kts | 252° |
| 2026-05-07 13:07 | 50.72775 | -3.45580 | 1728 ft | 163 kts | 249° |
| 2026-05-07 13:08 | 50.72422 | -3.46666 | 1971 ft | 175 kts | 221° |
| 2026-05-07 13:08 | 50.71304 | -3.47575 | 2426 ft | 195 kts | 185° |
| 2026-05-07 13:08 | 50.69923 | -3.47123 | 2948 ft | 220 kts | 148° |
| 2026-05-07 13:08 | 50.68945 | -3.45119 | 3536 ft | 249 kts | 109° |
| 2026-05-07 13:09 | 50.68758 | -3.42335 | 4496 ft | 262 kts | 90° |
| 2026-05-07 13:09 | 50.68941 | -3.39438 | 5571 ft | 269 kts | 83° |
| 2026-05-07 13:09 | 50.69244 | -3.36491 | 6586 ft | 276 kts | 81° |
| 2026-05-07 13:09 | 50.69566 | -3.33467 | 7575 ft | 281 kts | 83° |
| 2026-05-07 13:10 | 50.69863 | -3.30399 | 8593 ft | 286 kts | 84° |
| 2026-05-07 13:10 | 50.70132 | -3.27265 | 9600 ft | 291 kts | 85° |
| 2026-05-07 13:10 | 50.70375 | -3.24077 | 10550 ft | 295 kts | 85° |
| 2026-05-07 13:10 | 50.70603 | -3.20834 | 11371 ft | 305 kts | 86° |
| 2026-05-07 13:11 | 50.70832 | -3.17375 | 11752 ft | 329 kts | 87° |
| 2026-05-07 13:11 | 50.71073 | -3.13655 | 12063 ft | 353 kts | 85° |
| 2026-05-07 13:11 | 50.71327 | -3.09728 | 12613 ft | 366 kts | 85° |
| 2026-05-07 13:11 | 50.71586 | -3.05753 | 13361 ft | 372 kts | 86° |
| 2026-05-07 13:12 | 50.71853 | -3.01676 | 14135 ft | 376 kts | 86° |
| 2026-05-07 13:12 | 50.72122 | -2.97544 | 14759 ft | 381 kts | 86° |
| 2026-05-07 13:12 | 50.72394 | -2.93362 | 14982 ft | 383 kts | 86° |
| 2026-05-07 13:12 | 50.72667 | -2.89119 | 15048 ft | 399 kts | 86° |
| 2026-05-07 13:13 | 50.72949 | -2.84635 | 15052 ft | 419 kts | 86° |
| 2026-05-07 13:13 | 50.73237 | -2.80013 | 15049 ft | 425 kts | 86° |
| 2026-05-07 13:13 | 50.73526 | -2.75373 | 15053 ft | 425 kts | 86° |
| 2026-05-07 13:13 | 50.73815 | -2.70732 | 15053 ft | 425 kts | 86° |
| 2026-05-07 13:14 | 50.74104 | -2.66092 | 15055 ft | 425 kts | 86° |
| 2026-05-07 13:14 | 50.74392 | -2.61450 | 15055 ft | 425 kts | 86° |
| 2026-05-07 13:14 | 50.74676 | -2.56808 | 15056 ft | 425 kts | 86° |
| 2026-05-07 13:14 | 50.74956 | -2.52168 | 15054 ft | 425 kts | 86° |
| 2026-05-07 13:15 | 50.75152 | -2.47573 | 15055 ft | 424 kts | 89° |
| 2026-05-07 13:15 | 50.75256 | -2.42923 | 15057 ft | 424 kts | 90° |
| 2026-05-07 13:15 | 50.75298 | -2.38268 | 15055 ft | 424 kts | 91° |
| 2026-05-07 13:15 | 50.75315 | -2.33620 | 15047 ft | 423 kts | 91° |
| 2026-05-07 13:16 | 50.75335 | -2.28970 | 15049 ft | 424 kts | 91° |
| 2026-05-07 13:16 | 50.75368 | -2.24319 | 15048 ft | 423 kts | 91° |
| 2026-05-07 13:16 | 50.75414 | -2.19672 | 15049 ft | 423 kts | 90° |
| 2026-05-07 13:16 | 50.75469 | -2.15021 | 15049 ft | 423 kts | 90° |
| 2026-05-07 13:17 | 50.75528 | -2.10374 | 15049 ft | 423 kts | 90° |
| 2026-05-07 13:17 | 50.75589 | -2.05722 | 15055 ft | 423 kts | 90° |
| 2026-05-07 13:17 | 50.75650 | -2.01074 | 15053 ft | 423 kts | 90° |
| 2026-05-07 13:17 | 50.75706 | -1.96426 | 15054 ft | 423 kts | 90° |
| 2026-05-07 13:18 | 50.75754 | -1.91782 | 15051 ft | 423 kts | 91° |
| 2026-05-07 13:18 | 50.75801 | -1.87196 | 15043 ft | 423 kts | 90° |
| 2026-05-07 13:18 | 50.75846 | -1.82553 | 15035 ft | 423 kts | 90° |
| 2026-05-07 13:18 | 50.75891 | -1.77916 | 15037 ft | 423 kts | 90° |
| 2026-05-07 13:19 | 50.75933 | -1.73268 | 15038 ft | 423 kts | 90° |
| 2026-05-07 13:19 | 50.75973 | -1.68624 | 15039 ft | 423 kts | 90° |
| 2026-05-07 13:19 | 50.76010 | -1.64017 | 15046 ft | 410 kts | 91° |
| 2026-05-07 13:19 | 50.76043 | -1.59627 | 15056 ft | 390 kts | 91° |
| 2026-05-07 13:20 | 50.76074 | -1.55459 | 15057 ft | 370 kts | 91° |
| 2026-05-07 13:20 | 50.76103 | -1.51489 | 15058 ft | 354 kts | 91° |
| 2026-05-07 13:20 | 50.76129 | -1.47694 | 15059 ft | 337 kts | 91° |
| 2026-05-07 13:20 | 50.76153 | -1.44066 | 15059 ft | 323 kts | 91° |
| 2026-05-07 13:21 | 50.76174 | -1.40555 | 15060 ft | 318 kts | 91° |
| 2026-05-07 13:21 | 50.76193 | -1.37080 | 15058 ft | 316 kts | 91° |
| 2026-05-07 13:21 | 50.76209 | -1.33610 | 15060 ft | 316 kts | 91° |
| 2026-05-07 13:21 | 50.76225 | -1.30146 | 15060 ft | 316 kts | 91° |
| 2026-05-07 13:22 | 50.76250 | -1.26678 | 15061 ft | 316 kts | 89° |
| 2026-05-07 13:22 | 50.76477 | -1.23227 | 15061 ft | 317 kts | 82° |
| 2026-05-07 13:22 | 50.76975 | -1.19825 | 15062 ft | 318 kts | 75° |
| 2026-05-07 13:22 | 50.77634 | -1.16469 | 14811 ft | 325 kts | 74° |
| 2026-05-07 13:23 | 50.78314 | -1.12962 | 14630 ft | 341 kts | 74° |
| 2026-05-07 13:23 | 50.79001 | -1.09414 | 14385 ft | 334 kts | 74° |
| 2026-05-07 13:23 | 50.79672 | -1.05944 | 14189 ft | 325 kts | 75° |
| 2026-05-07 13:23 | 50.80323 | -1.02578 | 14070 ft | 314 kts | 75° |
| 2026-05-07 13:24 | 50.80950 | -0.99319 | 13947 ft | 305 kts | 74° |
| 2026-05-07 13:24 | 50.81553 | -0.96172 | 13812 ft | 291 kts | 75° |
| 2026-05-07 13:24 | 50.82125 | -0.93191 | 13620 ft | 277 kts | 75° |
| 2026-05-07 13:24 | 50.82683 | -0.90309 | 13324 ft | 272 kts | 75° |
| 2026-05-07 13:25 | 50.83236 | -0.87456 | 13066 ft | 272 kts | 75° |
| 2026-05-07 13:25 | 50.83786 | -0.84613 | 12925 ft | 267 kts | 75° |
| 2026-05-07 13:25 | 50.84333 | -0.81789 | 13002 ft | 268 kts | 74° |
| 2026-05-07 13:25 | 50.84879 | -0.78973 | 12718 ft | 268 kts | 75° |
| 2026-05-07 13:26 | 50.85411 | -0.76159 | 12419 ft | 266 kts | 78° |
| 2026-05-07 13:26 | 50.85644 | -0.73310 | 12133 ft | 263 kts | 87° |
| 2026-05-07 13:26 | 50.85783 | -0.70426 | 11844 ft | 262 kts | 88° |
| 2026-05-07 13:26 | 50.85925 | -0.67557 | 11561 ft | 261 kts | 88° |
| 2026-05-07 13:27 | 50.86066 | -0.64697 | 11274 ft | 260 kts | 87° |
| 2026-05-07 13:27 | 50.86206 | -0.61851 | 10984 ft | 258 kts | 87° |
| 2026-05-07 13:27 | 50.86347 | -0.59020 | 10690 ft | 257 kts | 87° |
| 2026-05-07 13:27 | 50.86487 | -0.56201 | 10408 ft | 256 kts | 88° |
| 2026-05-07 13:28 | 50.86623 | -0.53402 | 10120 ft | 255 kts | 88° |
| 2026-05-07 13:28 | 50.86758 | -0.50609 | 9802 ft | 254 kts | 88° |
| 2026-05-07 13:28 | 50.86892 | -0.47830 | 9468 ft | 253 kts | 88° |
| 2026-05-07 13:28 | 50.87024 | -0.45063 | 9134 ft | 251 kts | 88° |
| 2026-05-07 13:29 | 50.87155 | -0.42310 | 8795 ft | 250 kts | 87° |
| 2026-05-07 13:29 | 50.87284 | -0.39576 | 8464 ft | 249 kts | 87° |
| 2026-05-07 13:29 | 50.87413 | -0.36854 | 8119 ft | 247 kts | 87° |
| 2026-05-07 13:29 | 50.87541 | -0.34149 | 7775 ft | 246 kts | 86° |
| 2026-05-07 13:30 | 50.87668 | -0.31456 | 7431 ft | 245 kts | 86° |
| 2026-05-07 13:30 | 50.87793 | -0.28778 | 7133 ft | 243 kts | 86° |
| 2026-05-07 13:30 | 50.87913 | -0.26148 | 7080 ft | 244 kts | 86° |
| 2026-05-07 13:30 | 50.88036 | -0.23463 | 7083 ft | 244 kts | 86° |
| 2026-05-07 13:31 | 50.88156 | -0.20777 | 7083 ft | 244 kts | 86° |
| 2026-05-07 13:31 | 50.88276 | -0.18093 | 7084 ft | 244 kts | 86° |
| 2026-05-07 13:31 | 50.88396 | -0.15405 | 7042 ft | 245 kts | 86° |
| 2026-05-07 13:31 | 50.88515 | -0.12716 | 7016 ft | 244 kts | 86° |
| 2026-05-07 13:32 | 50.88634 | -0.10034 | 7009 ft | 244 kts | 86° |
| 2026-05-07 13:32 | 50.88974 | -0.07412 | 7007 ft | 245 kts | 66° |
| 2026-05-07 13:32 | 50.89944 | -0.05218 | 7006 ft | 245 kts | 42° |
| 2026-05-07 13:32 | 50.91377 | -0.03804 | 7006 ft | 244 kts | 19° |
| 2026-05-07 13:33 | 50.92998 | -0.03385 | 6936 ft | 231 kts | 356° |
| 2026-05-07 13:33 | 50.94515 | -0.03932 | 6804 ft | 219 kts | 334° |
| 2026-05-07 13:33 | 50.95745 | -0.05225 | 6575 ft | 213 kts | 314° |
| 2026-05-07 13:33 | 50.96608 | -0.07100 | 6277 ft | 211 kts | 294° |
| 2026-05-07 13:34 | 50.97045 | -0.09302 | 5974 ft | 209 kts | 283° |
| 2026-05-07 13:34 | 50.97708 | -0.13791 | 5387 ft | 207 kts | 282° |
| 2026-05-07 13:34 | 50.98035 | -0.16010 | 5109 ft | 206 kts | 283° |
| 2026-05-07 13:35 | 50.98392 | -0.18208 | 4800 ft | 206 kts | 289° |
| 2026-05-07 13:35 | 50.99027 | -0.20236 | 4487 ft | 206 kts | 303° |
| 2026-05-07 13:35 | 50.99890 | -0.22046 | 4195 ft | 205 kts | 307° |
| 2026-05-07 13:35 | 51.00761 | -0.23844 | 3887 ft | 205 kts | 307° |
| 2026-05-07 13:36 | 51.01628 | -0.25641 | 3585 ft | 205 kts | 307° |
| 2026-05-07 13:36 | 51.02494 | -0.27439 | 3294 ft | 204 kts | 307° |
| 2026-05-07 13:36 | 51.03355 | -0.29227 | 3050 ft | 202 kts | 307° |
| 2026-05-07 13:36 | 51.04214 | -0.31012 | 3003 ft | 204 kts | 307° |
| 2026-05-07 13:37 | 51.05075 | -0.32810 | 3010 ft | 205 kts | 307° |
| 2026-05-07 13:37 | 51.05937 | -0.34614 | 3010 ft | 205 kts | 306° |
| 2026-05-07 13:37 | 51.06798 | -0.36420 | 2945 ft | 203 kts | 307° |
| 2026-05-07 13:37 | 51.07643 | -0.38190 | 2656 ft | 204 kts | 306° |
| 2026-05-07 13:38 | 51.08514 | -0.39977 | 2354 ft | 205 kts | 310° |
| 2026-05-07 13:38 | 51.09721 | -0.41087 | 2081 ft | 203 kts | 352° |
| 2026-05-07 13:38 | 51.11056 | -0.40723 | 1996 ft | 193 kts | 31° |
| 2026-05-07 13:38 | 51.11951 | -0.39213 | 2006 ft | 189 kts | 67° |
| 2026-05-07 13:39 | 51.12288 | -0.37242 | 2054 ft | 177 kts | 79° |
| 2026-05-07 13:39 | 51.12545 | -0.35377 | 1999 ft | 167 kts | 79° |
| 2026-05-07 13:39 | 51.12790 | -0.33613 | 1857 ft | 158 kts | 79° |
| 2026-05-07 13:39 | 51.13020 | -0.31957 | 1684 ft | 147 kts | 80° |
| 2026-05-07 13:40 | 51.13232 | -0.30439 | 1496 ft | 136 kts | 80° |
| 2026-05-07 13:40 | 51.13434 | -0.28988 | 1317 ft | 133 kts | 80° |
| 2026-05-07 13:40 | 51.13633 | -0.27559 | 1135 ft | 131 kts | 80° |
| 2026-05-07 13:40 | 51.13827 | -0.26161 | 953 ft | 128 kts | 80° |
| 2026-05-07 13:41 | 51.14018 | -0.24783 | 780 ft | 126 kts | 79° |
| 2026-05-07 13:41 | 51.14205 | -0.23441 | 604 ft | 125 kts | 79° |
| 2026-05-07 13:41 | 51.14391 | -0.22091 | 432 ft | 124 kts | 79° |
| 2026-05-07 13:41 | 51.14576 | -0.20756 | 265 ft | 123 kts | 80° |
| 2026-05-07 13:42 | 51.14752 | -0.19491 | 210 ft | 100 kts | 78° |
| 2026-05-07 13:42 | 51.14864 | -0.18685 | 206 ft | 52 kts | 77° |
| 2026-05-07 13:42 | 51.14926 | -0.18257 | 208 ft | 29 kts | 76° |
| 2026-05-07 13:42 | 51.14972 | -0.18000 | 215 ft | 23 kts | 65° |
| 2026-05-07 13:43 | 51.15044 | -0.17824 | 208 ft | 11 kts | 53° |
| 2026-05-07 13:43 | 51.15083 | -0.17769 | 215 ft | 7 kts | 24° |
| 2026-05-07 13:43 | 51.15101 | -0.17764 | 206 ft | 0 kts | 4° |
| 2026-05-07 13:45 | 51.15136 | -0.17765 | 206 ft | 8 kts | 356° |
| 2026-05-07 13:45 | 51.15196 | -0.17777 | 205 ft | 10 kts | 352° |
| 2026-05-07 13:46 | 51.15258 | -0.17741 | 210 ft | 11 kts | 57° |
| 2026-05-07 13:46 | 51.15279 | -0.17617 | 208 ft | 13 kts | 78° |
| 2026-05-07 13:46 | 51.15296 | -0.17478 | 205 ft | 13 kts | 81° |
| 2026-05-07 13:46 | 51.15346 | -0.17377 | 211 ft | 13 kts | 2° |
| 2026-05-07 13:47 | 51.15441 | -0.17405 | 214 ft | 14 kts | 347° |
| 2026-05-07 13:47 | 51.15542 | -0.17441 | 207 ft | 15 kts | 347° |
| 2026-05-07 13:47 | 51.15642 | -0.17476 | 210 ft | 13 kts | 347° |
| 2026-05-07 13:47 | 51.15724 | -0.17503 | 210 ft | 11 kts | 354° |
| 2026-05-07 13:48 | 51.15774 | -0.17424 | 205 ft | 10 kts | 77° |
| 2026-05-07 13:48 | 51.15785 | -0.17336 | 205 ft | 9 kts | 78° |
| 2026-05-07 13:48 | 51.15799 | -0.17234 | 208 ft | 10 kts | 78° |
| 2026-05-07 13:48 | 51.15807 | -0.17173 | 216 ft | 3 kts | 77° |
| 2026-05-07 13:49 | 51.15816 | -0.17160 | 213 ft | 2 kts | 28° |
| 2026-05-07 13:49 | 51.15832 | -0.17162 | 207 ft | 3 kts | 349° |
| 2026-05-07 13:49 | 51.15857 | -0.17174 | 205 ft | 4 kts | 340° |
| 2026-05-07 13:49 | 51.15888 | -0.17195 | 205 ft | 5 kts | 336° |
| 2026-05-07 13:50 | 51.15895 | -0.17200 | 213 ft | 0 kts | 336° |